createdAt,value
2022-12-23T00:01:19.248Z,96649.00
2022-12-23T00:05:20.375Z,96656.00
2022-12-23T00:09:21.381Z,96657.00
2022-12-23T00:13:40.875Z,96656.00
2022-12-23T00:17:45.715Z,96658.00
2022-12-23T00:21:48.041Z,96664.00
2022-12-23T00:25:49.064Z,96659.00
2022-12-23T00:29:50.205Z,96647.00
2022-12-23T00:33:53.188Z,96655.00
2022-12-23T00:37:54.202Z,96658.00
2022-12-23T00:42:13.777Z,96661.00
2022-12-23T00:46:15.025Z,96664.00
2022-12-23T00:50:16.476Z,96664.00
2022-12-23T00:54:18.296Z,96673.00
2022-12-23T00:58:20.565Z,96675.00
2022-12-23T01:02:40.145Z,96675.00
2022-12-23T01:06:41.385Z,96669.00
2022-12-23T01:10:42.557Z,96679.00
2022-12-23T01:14:43.959Z,96681.00
2022-12-23T01:18:45.240Z,96685.00
2022-12-23T01:22:46.496Z,96690.00
2022-12-23T01:26:47.739Z,96690.00
2022-12-23T01:30:48.901Z,96697.00
2022-12-23T01:34:50.030Z,96708.00
2022-12-23T01:38:51.327Z,96710.00
2022-12-23T01:42:52.391Z,96724.00
2022-12-23T01:46:53.656Z,96728.00
2022-12-23T01:51:01.700Z,96741.00
2022-12-23T01:55:03.240Z,96744.00
2022-12-23T01:59:18.248Z,96754.00
2022-12-23T02:03:37.682Z,96749.00
2022-12-23T02:07:58.481Z,96752.00
2022-12-23T02:12:24.647Z,96752.00
2022-12-23T02:16:28.038Z,96752.00
2022-12-23T02:20:36.685Z,96768.00
2022-12-23T02:24:56.381Z,96768.00
2022-12-23T02:29:13.139Z,96769.00
2022-12-23T02:33:20.807Z,96777.00
2022-12-23T02:37:31.473Z,96775.00
2022-12-23T02:41:39.398Z,96776.00
2022-12-23T02:45:56.126Z,96779.00
2022-12-23T02:50:01.040Z,96781.00
2022-12-23T02:54:05.168Z,96772.00
2022-12-23T02:58:10.422Z,96781.00
2022-12-23T03:02:11.648Z,96778.00
2022-12-23T03:06:16.472Z,96786.00
2022-12-23T03:10:38.092Z,96774.00
2022-12-23T03:14:48.832Z,96780.00
2022-12-23T03:19:11.904Z,96793.00
2022-12-23T03:23:23.054Z,96786.00
2022-12-23T03:27:47.578Z,96800.00
2022-12-23T03:31:51.121Z,96790.00
2022-12-23T03:35:58.962Z,96796.00
2022-12-23T03:40:06.702Z,96802.00
2022-12-23T03:44:14.216Z,96801.00
2022-12-23T03:48:24.870Z,96803.00
2022-12-23T03:52:56.860Z,96814.00
2022-12-23T03:57:01.816Z,96823.00
2022-12-23T04:01:12.903Z,96825.00
2022-12-23T04:05:29.404Z,96814.00
2022-12-23T04:09:30.532Z,96824.00
2022-12-23T04:13:32.042Z,96833.00
2022-12-23T04:17:33.416Z,96858.00
2022-12-23T04:21:34.394Z,96851.00
2022-12-23T04:25:35.565Z,96836.00
2022-12-23T04:29:36.455Z,96849.00
2022-12-23T04:33:37.607Z,96841.00
2022-12-23T04:37:38.715Z,96844.00
2022-12-23T04:41:39.793Z,96843.00
2022-12-23T04:45:42.089Z,96834.00
2022-12-23T04:49:43.329Z,96835.00
2022-12-23T04:53:44.362Z,96834.00
2022-12-23T04:57:45.587Z,96841.00
2022-12-23T05:01:46.672Z,96826.00
2022-12-23T05:05:47.888Z,96836.00
2022-12-23T05:09:48.995Z,96842.00
2022-12-23T05:13:50.098Z,96848.00
2022-12-23T05:17:51.068Z,96850.00
2022-12-23T05:21:52.199Z,96838.00
2022-12-23T05:25:53.908Z,96839.00
2022-12-23T05:29:55.044Z,96851.00
2022-12-23T05:33:58.439Z,96858.00
2022-12-23T05:37:59.305Z,96863.00
2022-12-23T05:42:00.399Z,96856.00
2022-12-23T05:46:01.508Z,96855.00
2022-12-23T05:50:03.589Z,96864.00
2022-12-23T05:54:04.706Z,96863.00
2022-12-23T05:58:05.771Z,96868.00
2022-12-23T06:02:07.045Z,96873.00
2022-12-23T06:06:08.432Z,96879.00
2022-12-23T06:10:10.280Z,96871.00
2022-12-23T06:14:11.312Z,96878.00
2022-12-23T06:18:12.493Z,96886.00
2022-12-23T06:22:14.545Z,96890.00
2022-12-23T06:26:15.651Z,96894.00
2022-12-23T06:30:16.669Z,96904.00
2022-12-23T06:34:17.953Z,96908.00
2022-12-23T06:38:19.185Z,96917.00
2022-12-23T06:42:20.364Z,96917.00
2022-12-23T06:46:21.534Z,96925.00
2022-12-23T06:50:22.805Z,96925.00
2022-12-23T06:54:24.058Z,96925.00
2022-12-23T06:58:25.179Z,96933.00
2022-12-23T07:02:26.380Z,96931.00
2022-12-23T07:06:27.378Z,96927.00
2022-12-23T07:10:28.662Z,96927.00
2022-12-23T07:14:29.793Z,96926.00
2022-12-23T07:18:30.904Z,96923.00
2022-12-23T07:22:31.925Z,96922.00
2022-12-23T07:26:33.161Z,96927.00
2022-12-23T07:30:35.429Z,96944.00
2022-12-23T07:34:36.491Z,96940.00
2022-12-23T07:38:37.800Z,96931.00
2022-12-23T07:42:46.959Z,96943.00
2022-12-23T07:46:42.081Z,96959.00
2022-12-23T07:50:43.292Z,96973.00
2022-12-23T07:54:44.339Z,96973.00
2022-12-23T07:58:50.047Z,96987.00
2022-12-23T08:02:52.900Z,96986.00
2022-12-23T08:06:57.055Z,96980.00
2022-12-23T08:11:01.594Z,96980.00
2022-12-23T08:15:05.649Z,96967.00
2022-12-23T08:19:08.195Z,96954.00
2022-12-23T08:23:11.167Z,96948.00
2022-12-23T08:27:12.332Z,96957.00
2022-12-23T08:31:22.423Z,96958.00
2022-12-23T08:35:23.608Z,96964.00
2022-12-23T08:39:24.697Z,96967.00
2022-12-23T08:43:30.230Z,96971.00
2022-12-23T08:47:29.116Z,96967.00
2022-12-23T08:51:30.590Z,96978.00
2022-12-23T08:55:37.575Z,96969.00
2022-12-23T08:59:38.904Z,96962.00
2022-12-23T09:03:41.823Z,96967.00
2022-12-23T09:07:42.998Z,96968.00
2022-12-23T09:11:44.272Z,96968.00
2022-12-23T09:15:45.558Z,96965.00
2022-12-23T09:19:52.521Z,96979.00
2022-12-23T09:23:50.338Z,96978.00
2022-12-23T09:27:51.596Z,96969.00
2022-12-23T09:31:52.727Z,96977.00
2022-12-23T09:35:57.690Z,96978.00
2022-12-23T09:39:58.964Z,96973.00
2022-12-23T09:44:23.538Z,96960.00
2022-12-23T09:48:28.359Z,96982.00
2022-12-23T09:52:51.541Z,96970.00
2022-12-23T09:56:56.451Z,96957.00
2022-12-23T10:01:16.773Z,96967.00
2022-12-23T10:05:30.918Z,96956.00
2022-12-23T10:09:35.707Z,96952.00
2022-12-23T10:13:55.475Z,96946.00
2022-12-23T10:18:00.374Z,96931.00
2022-12-23T10:22:05.638Z,96932.00
2022-12-23T10:26:25.451Z,96930.00
2022-12-23T10:34:45.738Z,96918.00
2022-12-23T10:39:17.736Z,96925.00
2022-12-23T10:43:40.561Z,96922.00
2022-12-23T10:47:51.629Z,96911.00
2022-12-23T10:52:13.964Z,96904.00
2022-12-23T10:56:15.562Z,96905.00
2022-12-23T11:00:20.517Z,96889.00
2022-12-23T11:04:28.611Z,96874.00
2022-12-23T11:08:31.371Z,96868.00
2022-12-23T11:12:44.056Z,96867.00
2022-12-23T11:16:46.273Z,96871.00
2022-12-23T11:21:05.482Z,96865.00
2022-12-23T11:25:30.268Z,96845.00
2022-12-23T11:29:41.078Z,96833.00
2022-12-23T11:33:57.653Z,96828.00
2022-12-23T11:38:01.028Z,96817.00
2022-12-23T11:42:06.139Z,96804.00
2022-12-23T11:46:25.388Z,96807.00
2022-12-23T11:50:35.626Z,96800.00
2022-12-23T11:54:38.350Z,96790.00
2022-12-23T11:58:52.194Z,96779.00
2022-12-23T12:02:56.329Z,96766.00
2022-12-23T12:06:57.385Z,96748.00
2022-12-23T12:11:08.572Z,96734.00
2022-12-23T12:15:25.923Z,96745.00
2022-12-23T12:19:34.146Z,96730.00
2022-12-23T12:23:45.252Z,96727.00
2022-12-23T12:27:53.045Z,96730.00
2022-12-23T12:31:58.775Z,96719.00
2022-12-23T12:36:05.628Z,96724.00
2022-12-23T12:40:16.419Z,96730.00
2022-12-23T12:44:30.026Z,96716.00
2022-12-23T12:48:49.772Z,96697.00
2022-12-23T12:52:53.518Z,96696.00
2022-12-23T12:56:56.300Z,96688.00
2022-12-23T13:01:13.070Z,96652.00
2022-12-23T13:05:32.849Z,96658.00
2022-12-23T13:09:52.715Z,96653.00
2022-12-23T13:13:57.459Z,96662.00
2022-12-23T13:18:05.487Z,96640.00
2022-12-23T13:22:19.139Z,96638.00
2022-12-23T13:26:35.985Z,96622.00
2022-12-23T13:30:49.955Z,96609.00
2022-12-23T13:35:00.391Z,96609.00
2022-12-23T13:39:05.352Z,96595.00
2022-12-23T13:43:13.228Z,96603.00
2022-12-23T13:47:33.055Z,96590.00
2022-12-23T13:51:46.589Z,96615.00
2022-12-23T13:56:23.247Z,96609.00
2022-12-23T14:00:30.476Z,96611.00
2022-12-23T14:04:37.642Z,96574.00
2022-12-23T14:08:42.691Z,96585.00
2022-12-23T14:12:43.697Z,96522.00
2022-12-23T14:16:54.224Z,96560.00
2022-12-23T14:21:18.819Z,96533.00
2022-12-23T14:25:27.122Z,96529.00
2022-12-23T14:29:47.069Z,96518.00
2022-12-23T14:33:48.571Z,96510.00
2022-12-23T14:38:17.486Z,96508.00
2022-12-23T14:42:42.125Z,96499.00
2022-12-23T14:46:47.533Z,96485.00
2022-12-23T14:51:01.723Z,96488.00
2022-12-23T14:55:30.937Z,96499.00
2022-12-23T14:59:46.184Z,96503.00
2022-12-23T15:03:50.284Z,96501.00
2022-12-23T15:07:55.181Z,96493.00
2022-12-23T15:11:59.988Z,96491.00
2022-12-23T15:16:02.210Z,96495.00
2022-12-23T15:20:22.900Z,96502.00
2022-12-23T15:24:24.155Z,96494.00
2022-12-23T15:28:37.459Z,96493.00
2022-12-23T15:32:41.608Z,96484.00
2022-12-23T15:36:44.161Z,96480.00
2022-12-23T15:40:58.652Z,96487.00
2022-12-23T15:44:59.909Z,96471.00
2022-12-23T15:49:01.586Z,96466.00
2022-12-23T15:53:06.579Z,96484.00
2022-12-23T15:57:09.693Z,96472.00
2022-12-23T16:01:16.194Z,96471.00
2022-12-23T16:05:30.458Z,96462.00
2022-12-23T16:09:35.113Z,96453.00
2022-12-23T16:13:40.237Z,96441.00
2022-12-23T16:17:39.444Z,96430.00
2022-12-23T16:21:40.693Z,96430.00
2022-12-23T16:25:50.331Z,96441.00
2022-12-23T16:29:50.750Z,96462.00
2022-12-23T16:33:57.632Z,96447.00
2022-12-23T16:38:08.333Z,96457.00
2022-12-23T16:42:09.558Z,96460.00
2022-12-23T16:46:14.568Z,96457.00
2022-12-23T16:50:15.713Z,96476.00
2022-12-23T16:54:19.573Z,96455.00
2022-12-23T16:58:20.803Z,96474.00
2022-12-23T17:02:24.129Z,96484.00
2022-12-23T17:06:26.178Z,96480.00
2022-12-23T17:10:27.509Z,96495.00
2022-12-23T17:14:29.182Z,96487.00
2022-12-23T17:18:30.104Z,96479.00
2022-12-23T17:22:33.639Z,96493.00
2022-12-23T17:26:34.653Z,96490.00
2022-12-23T17:30:37.049Z,96488.00
2022-12-23T17:34:38.291Z,96477.00
2022-12-23T17:38:39.560Z,96497.00
2022-12-23T17:42:41.828Z,96497.00
2022-12-23T17:46:45.361Z,96506.00
2022-12-23T17:50:47.081Z,96498.00
2022-12-23T17:54:49.606Z,96502.00
2022-12-23T17:58:51.040Z,96512.00
2022-12-23T18:02:52.114Z,96519.00
2022-12-23T18:06:53.934Z,96518.00
2022-12-23T18:10:55.042Z,96514.00
2022-12-23T18:14:56.347Z,96530.00
2022-12-23T18:18:57.600Z,96523.00
2022-12-23T18:22:59.441Z,96531.00
2022-12-23T18:27:01.590Z,96536.00
2022-12-23T18:31:02.803Z,96529.00
2022-12-23T18:35:25.902Z,96538.00
2022-12-23T18:39:27.048Z,96543.00
2022-12-23T18:43:28.541Z,96554.00
2022-12-23T18:47:31.121Z,96550.00
2022-12-23T18:51:32.395Z,96547.00
2022-12-23T18:55:33.841Z,96559.00
2022-12-23T18:59:36.689Z,96569.00
2022-12-23T19:03:37.806Z,96589.00
2022-12-23T19:07:38.740Z,96580.00
2022-12-23T19:11:39.923Z,96601.00
2022-12-23T19:15:42.532Z,96601.00
2022-12-23T19:19:44.344Z,96612.00
2022-12-23T19:23:45.313Z,96614.00
2022-12-23T19:27:47.186Z,96611.00
2022-12-23T19:31:48.392Z,96630.00
2022-12-23T19:35:49.562Z,96646.00
2022-12-23T19:39:51.562Z,96649.00
2022-12-23T19:43:52.646Z,96654.00
2022-12-23T19:47:53.910Z,96662.00
2022-12-23T19:51:54.866Z,96667.00
2022-12-23T19:55:59.498Z,96680.00
2022-12-23T20:00:02.003Z,96675.00
2022-12-23T20:04:03.231Z,96679.00
2022-12-23T20:08:04.809Z,96669.00
2022-12-23T20:12:06.435Z,96686.00
2022-12-23T20:16:09.680Z,96716.00
2022-12-23T20:20:11.012Z,96708.00
2022-12-23T20:24:13.374Z,96716.00
2022-12-23T20:28:15.108Z,96721.00
2022-12-23T20:32:16.595Z,96730.00
2022-12-23T20:36:21.393Z,96742.00
2022-12-23T20:40:22.638Z,96745.00
2022-12-23T20:44:34.475Z,96744.00
2022-12-23T20:48:33.438Z,96748.00
2022-12-23T20:52:31.327Z,96758.00
2022-12-23T20:56:32.357Z,96758.00
2022-12-23T21:00:34.241Z,96734.00
2022-12-23T21:04:35.476Z,96750.00
2022-12-23T21:08:37.698Z,96752.00
2022-12-23T21:12:38.945Z,96756.00
2022-12-23T21:16:41.761Z,96771.00
2022-12-23T21:20:42.911Z,96764.00
2022-12-23T21:24:43.890Z,96779.00
2022-12-23T21:28:46.271Z,96787.00
2022-12-23T21:32:47.583Z,96793.00
2022-12-23T21:36:48.832Z,96789.00
2022-12-23T21:40:49.994Z,96749.00
2022-12-23T21:44:56.601Z,96781.00
2022-12-23T21:48:58.353Z,96769.00
2022-12-23T21:52:59.538Z,96766.00
2022-12-23T21:57:00.804Z,96784.00
2022-12-23T22:01:09.834Z,96797.00
2022-12-23T22:05:10.999Z,96820.00
2022-12-23T22:09:15.606Z,96801.00
2022-12-23T22:13:16.687Z,96796.00
2022-12-23T22:17:17.867Z,96835.00
2022-12-23T22:21:21.354Z,96833.00
2022-12-23T22:25:22.610Z,96831.00
2022-12-23T22:29:23.925Z,96821.00
2022-12-23T22:33:24.892Z,96838.00
2022-12-23T22:37:26.216Z,96840.00
2022-12-23T22:41:29.358Z,96841.00
2022-12-23T22:45:30.522Z,96857.00
2022-12-23T22:49:31.810Z,96857.00
2022-12-23T22:53:33.161Z,96856.00
2022-12-23T22:57:34.514Z,96874.00
2022-12-23T23:01:35.845Z,96869.00
2022-12-23T23:05:37.108Z,96870.00
2022-12-23T23:09:38.166Z,96892.00
2022-12-23T23:13:39.260Z,96861.00
2022-12-23T23:17:40.387Z,96901.00
2022-12-23T23:21:41.657Z,96891.00
2022-12-23T23:25:43.230Z,96898.00
2022-12-23T23:29:44.219Z,96917.00
2022-12-23T23:33:45.589Z,96901.00
2022-12-23T23:37:46.839Z,96919.00
2022-12-23T23:41:47.965Z,96917.00
2022-12-23T23:45:49.731Z,96926.00
2022-12-23T23:49:50.913Z,96927.00
2022-12-23T23:53:51.939Z,96943.00
2022-12-23T23:57:53.097Z,96943.00
